Hlavní strana
METAR-TAF:

METAR-TAF

Letiště :

The Pas, Manitoba, Kanada

zeměpisná šířka: 53-58N, zeměpisná délka: 101-06W, výška: 271 m

Aktuální stav počasí

Zpráva byla vytvořena před 11 minutami, v 10:00 UTC
Bezvětří
Teplota -26°C
Vlhkost vzduchu 76%
Tlak 1021 hPa
Viditelnost: 14.5 km
Oblačno až skoro zataženo ve výšce 18000 ft
Zataženo ve výšce 21000 ft

METAR: CYQD 161000Z AUTO 00000KT 9SM BKN180 OVC210 M26/M29 A3014 RMK SLP237

Čas: 04:11 (10:11 UTC)

Předpověď počasí

Zpráva byla vytvořena před 3 hodinami a 33 minutami, v 06:38 UTC
Předpověď platná od 16 v 07 UTC do 16 v 19 UTC
vítr z různých směrů 3 kt
Viditelnost: 10 km
Skoro jasno ve výšce 22000 ft
Změna
od 16 v 10 UTC do 16 v 12 UTC
Severovýchodní vítr 5 kt
Od 16 v 1800 UTC
Východoseverovýchodní vítr 8 kt
Viditelnost: 10 km
Skoro jasno ve výšce 1200 ft

TAF: CYQD 160638Z 1607/1619 VRB03KT P6SM FEW220 BECMG 1610/1612 05005KT FM161800 06008KT P6SM FEW012 RMK FCST BASED ON AUTO OBS. NXT FCST BY 161300Z

Stav a předpovědi počasí z více než 4 000 letišť (zprávy METAR a TAF).

Červené a žluté tečky na mapě představují dostupné meteorologické stanice.

Když kurzor umístíte na tečku, zobrazí se název stanice.

Pak kliknutím zobrazíte stav a předpověď počasí.

Chcete-li změnit mapu, kliknutím na zelené tlačítko se znaménkem +mapu přiblížíte, kliknutím na zelené tlačítko se znaménkem – mapu oddálíte a kliknutím na zelené šipky přejdete na sousední mapy.


METAR-TAF: